sensor_id;sensor_type;location;lat;lon;timestamp;temperature;humidity
36924;DHT22;22841;50.252;18.688;2023-12-20T02:53:39;5.70;99.90
36924;DHT22;22841;50.252;18.688;2023-12-20T02:56:05;5.60;99.90
36924;DHT22;22841;50.252;18.688;2023-12-20T02:58:31;5.50;99.90
36924;DHT22;22841;50.252;18.688;2023-12-20T03:00:57;5.40;99.90
36924;DHT22;22841;50.252;18.688;2023-12-20T03:03:24;5.20;99.90
36924;DHT22;22841;50.252;18.688;2023-12-20T03:05:50;5.40;99.90
36924;DHT22;22841;50.252;18.688;2023-12-20T03:08:16;5.30;99.90
36924;DHT22;22841;50.252;18.688;2023-12-20T03:10:42;5.20;99.90
36924;DHT22;22841;50.252;18.688;2023-12-20T03:13:08;5.20;99.90
36924;DHT22;22841;50.252;18.688;2023-12-20T03:15:35;5.10;1.00
36924;DHT22;22841;50.252;18.688;2023-12-20T03:18:01;5.10;9.10
36924;DHT22;22841;50.252;18.688;2023-12-20T03:20:27;5.10;99.90
36924;DHT22;22841;50.252;18.688;2023-12-20T03:22:53;5.00;99.90
36924;DHT22;22841;50.252;18.688;2023-12-20T03:25:19;5.00;99.90
36924;DHT22;22841;50.252;18.688;2023-12-20T03:27:45;5.10;99.90
36924;DHT22;22841;50.252;18.688;2023-12-20T03:30:12;4.90;99.90
36924;DHT22;22841;50.252;18.688;2023-12-20T03:32:38;4.90;99.90
36924;DHT22;22841;50.252;18.688;2023-12-20T03:35:05;4.90;99.90
36924;DHT22;22841;50.252;18.688;2023-12-20T03:37:31;4.80;99.90
36924;DHT22;22841;50.252;18.688;2023-12-20T03:39:58;4.80;99.90
36924;DHT22;22841;50.252;18.688;2023-12-20T03:42:24;4.80;99.90
36924;DHT22;22841;50.252;18.688;2023-12-20T03:44:52;4.70;1.00
36924;DHT22;22841;50.252;18.688;2023-12-20T03:47:18;4.70;99.90
36924;DHT22;22841;50.252;18.688;2023-12-20T03:49:46;4.60;99.90
36924;DHT22;22841;50.252;18.688;2023-12-20T03:52:12;4.70;8.30
36924;DHT22;22841;50.252;18.688;2023-12-20T03:54:38;4.60;1.00
36924;DHT22;22841;50.252;18.688;2023-12-20T03:57:04;4.70;99.90
36924;DHT22;22841;50.252;18.688;2023-12-20T03:59:35;4.70;1.00
36924;DHT22;22841;50.252;18.688;2023-12-20T04:02:02;4.60;99.90
36924;DHT22;22841;50.252;18.688;2023-12-20T04:04:28;4.50;99.90
36924;DHT22;22841;50.252;18.688;2023-12-20T04:06:54;4.60;1.00
36924;DHT22;22841;50.252;18.688;2023-12-20T04:09:22;4.60;1.00
36924;DHT22;22841;50.252;18.688;2023-12-20T04:11:48;4.50;55.70
36924;DHT22;22841;50.252;18.688;2023-12-20T04:14:14;4.70;99.90
36924;DHT22;22841;50.252;18.688;2023-12-20T04:16:40;4.50;1.00
36924;DHT22;22841;50.252;18.688;2023-12-20T04:19:06;4.50;1.00
36924;DHT22;22841;50.252;18.688;2023-12-20T04:21:33;4.50;99.90
36924;DHT22;22841;50.252;18.688;2023-12-20T04:23:59;4.50;99.90
36924;DHT22;22841;50.252;18.688;2023-12-20T04:26:25;4.60;99.90
36924;DHT22;22841;50.252;18.688;2023-12-20T04:28:51;4.50;99.90
36924;DHT22;22841;50.252;18.688;2023-12-20T04:31:17;4.50;99.90
36924;DHT22;22841;50.252;18.688;2023-12-20T04:33:43;4.50;99.90
36924;DHT22;22841;50.252;18.688;2023-12-20T04:36:10;4.40;99.70
36924;DHT22;22841;50.252;18.688;2023-12-20T04:38:37;4.40;1.00
36924;DHT22;22841;50.252;18.688;2023-12-20T04:41:03;4.40;99.90
36924;DHT22;22841;50.252;18.688;2023-12-20T04:43:29;4.40;99.90
36924;DHT22;22841;50.252;18.688;2023-12-20T04:45:55;4.40;99.90
36924;DHT22;22841;50.252;18.688;2023-12-20T04:48:21;4.40;99.90
36924;DHT22;22841;50.252;18.688;2023-12-20T04:50:47;4.50;99.90
36924;DHT22;22841;50.252;18.688;2023-12-20T04:53:13;4.40;99.90
36924;DHT22;22841;50.252;18.688;2023-12-20T04:55:39;4.40;99.90
36924;DHT22;22841;50.252;18.688;2023-12-20T04:58:05;4.40;99.90
36924;DHT22;22841;50.252;18.688;2023-12-20T05:00:32;4.50;99.90
36924;DHT22;22841;50.252;18.688;2023-12-20T05:02:58;4.40;99.90
36924;DHT22;22841;50.252;18.688;2023-12-20T05:05:24;4.40;99.90
36924;DHT22;22841;50.252;18.688;2023-12-20T05:07:50;4.50;99.90
36924;DHT22;22841;50.252;18.688;2023-12-20T05:10:16;4.40;99.90
36924;DHT22;22841;50.252;18.688;2023-12-20T05:12:42;4.50;99.90
36924;DHT22;22841;50.252;18.688;2023-12-20T05:15:09;4.40;99.90
36924;DHT22;22841;50.252;18.688;2023-12-20T05:17:35;4.40;99.90
36924;DHT22;22841;50.252;18.688;2023-12-20T05:20:02;4.40;99.90
36924;DHT22;22841;50.252;18.688;2023-12-20T05:22:28;4.40;99.90
36924;DHT22;22841;50.252;18.688;2023-12-20T05:24:54;4.30;99.90
36924;DHT22;22841;50.252;18.688;2023-12-20T05:27:20;4.30;99.90
36924;DHT22;22841;50.252;18.688;2023-12-20T05:29:46;4.30;99.90
36924;DHT22;22841;50.252;18.688;2023-12-20T05:32:12;4.40;99.90
36924;DHT22;22841;50.252;18.688;2023-12-20T05:34:38;4.20;99.90
36924;DHT22;22841;50.252;18.688;2023-12-20T05:37:04;4.30;99.90
36924;DHT22;22841;50.252;18.688;2023-12-20T05:39:30;4.30;99.90
36924;DHT22;22841;50.252;18.688;2023-12-20T05:41:57;4.30;99.90
36924;DHT22;22841;50.252;18.688;2023-12-20T05:44:23;4.30;99.90
36924;DHT22;22841;50.252;18.688;2023-12-20T05:46:49;4.40;99.90
36924;DHT22;22841;50.252;18.688;2023-12-20T05:49:15;4.30;99.90
36924;DHT22;22841;50.252;18.688;2023-12-20T05:51:41;4.30;99.90
36924;DHT22;22841;50.252;18.688;2023-12-20T05:54:09;4.30;99.90
36924;DHT22;22841;50.252;18.688;2023-12-20T05:56:35;4.20;99.90
36924;DHT22;22841;50.252;18.688;2023-12-20T05:59:02;4.20;99.90
36924;DHT22;22841;50.252;18.688;2023-12-20T06:01:29;4.20;99.90
36924;DHT22;22841;50.252;18.688;2023-12-20T06:03:55;4.20;99.90
36924;DHT22;22841;50.252;18.688;2023-12-20T06:06:21;4.20;99.90
36924;DHT22;22841;50.252;18.688;2023-12-20T06:08:47;4.20;99.90
36924;DHT22;22841;50.252;18.688;2023-12-20T06:11:13;4.20;99.90
36924;DHT22;22841;50.252;18.688;2023-12-20T06:13:39;4.20;99.90
36924;DHT22;22841;50.252;18.688;2023-12-20T06:16:06;4.10;99.90
36924;DHT22;22841;50.252;18.688;2023-12-20T06:18:33;4.10;99.90
36924;DHT22;22841;50.252;18.688;2023-12-20T06:20:59;4.10;99.90
36924;DHT22;22841;50.252;18.688;2023-12-20T06:23:25;4.00;99.90
36924;DHT22;22841;50.252;18.688;2023-12-20T06:25:51;4.10;73.00
36924;DHT22;22841;50.252;18.688;2023-12-20T06:28:17;4.10;81.00
36924;DHT22;22841;50.252;18.688;2023-12-20T06:36:29;4.00;94.70
36924;DHT22;22841;50.252;18.688;2023-12-20T06:44:25;3.90;99.90
36924;DHT22;22841;50.252;18.688;2023-12-20T06:46:51;3.90;99.90
36924;DHT22;22841;50.252;18.688;2023-12-20T06:49:17;3.90;99.90
36924;DHT22;22841;50.252;18.688;2023-12-20T06:51:44;3.90;99.90
36924;DHT22;22841;50.252;18.688;2023-12-20T06:54:10;3.80;99.90
36924;DHT22;22841;50.252;18.688;2023-12-20T06:56:36;3.90;99.90
36924;DHT22;22841;50.252;18.688;2023-12-20T06:59:02;3.90;99.90
36924;DHT22;22841;50.252;18.688;2023-12-20T07:07:52;3.90;99.90
36924;DHT22;22841;50.252;18.688;2023-12-20T07:10:18;3.90;99.90
36924;DHT22;22841;50.252;18.688;2023-12-20T07:12:45;3.90;99.90
36924;DHT22;22841;50.252;18.688;2023-12-20T07:15:11;3.90;99.90
36924;DHT22;22841;50.252;18.688;2023-12-20T07:17:37;3.90;99.90
36924;DHT22;22841;50.252;18.688;2023-12-20T07:20:04;3.90;99.90
36924;DHT22;22841;50.252;18.688;2023-12-20T07:22:33;3.90;99.90
36924;DHT22;22841;50.252;18.688;2023-12-20T07:24:59;3.90;99.90
36924;DHT22;22841;50.252;18.688;2023-12-20T07:27:26;3.90;99.90
36924;DHT22;22841;50.252;18.688;2023-12-20T07:29:52;3.90;99.90
36924;DHT22;22841;50.252;18.688;2023-12-20T07:32:18;3.90;99.90
36924;DHT22;22841;50.252;18.688;2023-12-20T07:34:45;3.90;99.90
36924;DHT22;22841;50.252;18.688;2023-12-20T07:37:11;3.90;99.90
36924;DHT22;22841;50.252;18.688;2023-12-20T07:40:00;3.90;99.90
36924;DHT22;22841;50.252;18.688;2023-12-20T07:46:11;3.90;99.90
36924;DHT22;22841;50.252;18.688;2023-12-20T07:51:28;4.00;99.90
36924;DHT22;22841;50.252;18.688;2023-12-20T08:01:17;3.90;99.90
36924;DHT22;22841;50.252;18.688;2023-12-20T08:11:09;3.90;99.90
36924;DHT22;22841;50.252;18.688;2023-12-20T08:13:35;4.00;99.90
36924;DHT22;22841;50.252;18.688;2023-12-20T08:16:01;3.80;99.90
36924;DHT22;22841;50.252;18.688;2023-12-20T08:18:29;3.90;99.90
36924;DHT22;22841;50.252;18.688;2023-12-20T08:20:55;3.90;99.90
36924;DHT22;22841;50.252;18.688;2023-12-20T08:23:21;4.00;99.90
36924;DHT22;22841;50.252;18.688;2023-12-20T08:25:47;3.90;99.90
36924;DHT22;22841;50.252;18.688;2023-12-20T08:28:14;3.90;99.90
36924;DHT22;22841;50.252;18.688;2023-12-20T08:30:40;3.80;99.90
36924;DHT22;22841;50.252;18.688;2023-12-20T08:33:07;3.90;99.90
36924;DHT22;22841;50.252;18.688;2023-12-20T08:35:37;4.10;99.90
36924;DHT22;22841;50.252;18.688;2023-12-20T08:44:52;3.90;99.90
36924;DHT22;22841;50.252;18.688;2023-12-20T08:50:41;3.90;99.90
36924;DHT22;22841;50.252;18.688;2023-12-20T08:56:30;3.90;99.90
36924;DHT22;22841;50.252;18.688;2023-12-20T08:58:56;3.90;99.90
36924;DHT22;22841;50.252;18.688;2023-12-20T09:01:22;3.90;99.90
36924;DHT22;22841;50.252;18.688;2023-12-20T09:03:49;3.90;99.90
36924;DHT22;22841;50.252;18.688;2023-12-20T09:09:58;3.90;99.90
36924;DHT22;22841;50.252;18.688;2023-12-20T09:12:24;3.90;99.90
36924;DHT22;22841;50.252;18.688;2023-12-20T09:14:51;3.90;99.90
36924;DHT22;22841;50.252;18.688;2023-12-20T09:17:18;3.90;99.90
36924;DHT22;22841;50.252;18.688;2023-12-20T09:23:43;3.90;99.90
36924;DHT22;22841;50.252;18.688;2023-12-20T09:43:07;3.90;99.90
36924;DHT22;22841;50.252;18.688;2023-12-20T09:49:00;3.90;99.90
36924;DHT22;22841;50.252;18.688;2023-12-20T09:51:28;3.90;99.90
36924;DHT22;22841;50.252;18.688;2023-12-20T09:53:56;3.90;99.90
36924;DHT22;22841;50.252;18.688;2023-12-20T09:56:23;4.10;99.90
36924;DHT22;22841;50.252;18.688;2023-12-20T09:58:49;3.90;99.90
36924;DHT22;22841;50.252;18.688;2023-12-20T10:01:16;4.00;99.90
36924;DHT22;22841;50.252;18.688;2023-12-20T10:03:42;4.00;99.90
36924;DHT22;22841;50.252;18.688;2023-12-20T10:06:08;4.00;99.90
36924;DHT22;22841;50.252;18.688;2023-12-20T10:08:35;4.00;99.90
36924;DHT22;22841;50.252;18.688;2023-12-20T10:11:01;4.00;99.90
36924;DHT22;22841;50.252;18.688;2023-12-20T10:13:28;4.00;99.90
36924;DHT22;22841;50.252;18.688;2023-12-20T10:15:57;3.90;99.90
36924;DHT22;22841;50.252;18.688;2023-12-20T10:18:25;4.00;99.90
36924;DHT22;22841;50.252;18.688;2023-12-20T10:20:51;3.90;99.90
36924;DHT22;22841;50.252;18.688;2023-12-20T10:23:17;3.90;99.90
36924;DHT22;22841;50.252;18.688;2023-12-20T10:25:57;4.10;99.90
36924;DHT22;22841;50.252;18.688;2023-12-20T10:28:24;3.90;99.90
36924;DHT22;22841;50.252;18.688;2023-12-20T10:30:54;4.00;99.90
36924;DHT22;22841;50.252;18.688;2023-12-20T10:33:24;4.00;99.90
36924;DHT22;22841;50.252;18.688;2023-12-20T10:35:52;3.90;99.90
36924;DHT22;22841;50.252;18.688;2023-12-20T10:38:18;4.00;99.90
36924;DHT22;22841;50.252;18.688;2023-12-20T10:40:49;4.00;99.90
36924;DHT22;22841;50.252;18.688;2023-12-20T10:43:19;4.00;99.90
36924;DHT22;22841;50.252;18.688;2023-12-20T10:45:46;4.00;99.90
36924;DHT22;22841;50.252;18.688;2023-12-20T10:48:12;4.00;99.90
36924;DHT22;22841;50.252;18.688;2023-12-20T10:50:38;4.00;99.90
36924;DHT22;22841;50.252;18.688;2023-12-20T10:53:04;4.00;99.90
36924;DHT22;22841;50.252;18.688;2023-12-20T10:55:30;4.00;99.90
36924;DHT22;22841;50.252;18.688;2023-12-20T10:58:01;4.20;99.90
36924;DHT22;22841;50.252;18.688;2023-12-20T11:00:29;4.10;99.90
36924;DHT22;22841;50.252;18.688;2023-12-20T11:03:00;4.10;99.90
36924;DHT22;22841;50.252;18.688;2023-12-20T11:05:44;4.00;99.90
36924;DHT22;22841;50.252;18.688;2023-12-20T11:15:12;4.10;99.90
36924;DHT22;22841;50.252;18.688;2023-12-20T11:17:39;4.10;99.90
36924;DHT22;22841;50.252;18.688;2023-12-20T11:20:08;4.20;99.90
36924;DHT22;22841;50.252;18.688;2023-12-20T11:22:36;4.20;99.90
36924;DHT22;22841;50.252;18.688;2023-12-20T11:25:05;4.20;99.90
36924;DHT22;22841;50.252;18.688;2023-12-20T11:27:34;4.20;99.90
36924;DHT22;22841;50.252;18.688;2023-12-20T11:30:03;4.20;99.90
36924;DHT22;22841;50.252;18.688;2023-12-20T11:32:34;4.20;99.90
36924;DHT22;22841;50.252;18.688;2023-12-20T11:35:21;4.20;99.90
36924;DHT22;22841;50.252;18.688;2023-12-20T11:37:47;4.10;99.90
36924;DHT22;22841;50.252;18.688;2023-12-20T11:40:16;4.20;99.90
36924;DHT22;22841;50.252;18.688;2023-12-20T11:42:48;4.20;99.90
36924;DHT22;22841;50.252;18.688;2023-12-20T11:45:16;4.20;99.90
36924;DHT22;22841;50.252;18.688;2023-12-20T11:47:43;4.20;99.90
36924;DHT22;22841;50.252;18.688;2023-12-20T11:50:11;4.30;99.90
36924;DHT22;22841;50.252;18.688;2023-12-20T11:52:37;4.30;99.90
36924;DHT22;22841;50.252;18.688;2023-12-20T11:55:04;4.30;99.90
36924;DHT22;22841;50.252;18.688;2023-12-20T11:57:32;4.30;99.90
36924;DHT22;22841;50.252;18.688;2023-12-20T11:59:58;4.30;99.90
36924;DHT22;22841;50.252;18.688;2023-12-20T12:02:24;4.30;99.90
36924;DHT22;22841;50.252;18.688;2023-12-20T12:05:15;4.30;99.90
36924;DHT22;22841;50.252;18.688;2023-12-20T12:08:06;4.40;99.90
36924;DHT22;22841;50.252;18.688;2023-12-20T12:10:58;4.40;99.90
36924;DHT22;22841;50.252;18.688;2023-12-20T12:13:24;4.40;99.90
36924;DHT22;22841;50.252;18.688;2023-12-20T12:15:53;4.40;99.90
36924;DHT22;22841;50.252;18.688;2023-12-20T12:18:20;4.50;99.90
36924;DHT22;22841;50.252;18.688;2023-12-20T12:20:46;4.40;99.90
36924;DHT22;22841;50.252;18.688;2023-12-20T12:23:12;4.40;99.90
36924;DHT22;22841;50.252;18.688;2023-12-20T12:25:38;4.30;99.90
36924;DHT22;22841;50.252;18.688;2023-12-20T12:28:05;4.50;99.90
36924;DHT22;22841;50.252;18.688;2023-12-20T12:30:31;4.50;99.90
36924;DHT22;22841;50.252;18.688;2023-12-20T12:32:57;4.50;99.90
36924;DHT22;22841;50.252;18.688;2023-12-20T12:35:26;4.50;99.90
36924;DHT22;22841;50.252;18.688;2023-12-20T12:37:52;4.50;99.90
36924;DHT22;22841;50.252;18.688;2023-12-20T12:40:18;4.50;99.90
36924;DHT22;22841;50.252;18.688;2023-12-20T12:42:45;4.50;99.90
36924;DHT22;22841;50.252;18.688;2023-12-20T12:45:12;4.50;99.90
36924;DHT22;22841;50.252;18.688;2023-12-20T12:47:39;4.50;99.90
36924;DHT22;22841;50.252;18.688;2023-12-20T12:50:05;4.40;99.90
36924;DHT22;22841;50.252;18.688;2023-12-20T12:52:31;4.40;99.90
36924;DHT22;22841;50.252;18.688;2023-12-20T12:54:57;4.50;99.90
36924;DHT22;22841;50.252;18.688;2023-12-20T12:57:23;4.40;99.90
36924;DHT22;22841;50.252;18.688;2023-12-20T12:59:50;4.40;99.90
36924;DHT22;22841;50.252;18.688;2023-12-20T13:02:16;4.40;99.90
36924;DHT22;22841;50.252;18.688;2023-12-20T13:04:42;4.40;99.90
36924;DHT22;22841;50.252;18.688;2023-12-20T13:07:10;4.30;99.90
36924;DHT22;22841;50.252;18.688;2023-12-20T13:09:39;4.60;99.90
36924;DHT22;22841;50.252;18.688;2023-12-20T13:12:06;4.40;99.90
36924;DHT22;22841;50.252;18.688;2023-12-20T13:14:33;4.40;99.90
36924;DHT22;22841;50.252;18.688;2023-12-20T13:17:03;4.40;99.90
36924;DHT22;22841;50.252;18.688;2023-12-20T13:19:30;4.40;99.90
36924;DHT22;22841;50.252;18.688;2023-12-20T13:21:56;4.40;99.90
36924;DHT22;22841;50.252;18.688;2023-12-20T13:24:24;4.50;99.90
36924;DHT22;22841;50.252;18.688;2023-12-20T13:26:50;4.60;99.90
36924;DHT22;22841;50.252;18.688;2023-12-20T13:29:16;4.50;99.90
36924;DHT22;22841;50.252;18.688;2023-12-20T13:31:42;4.50;99.90
36924;DHT22;22841;50.252;18.688;2023-12-20T13:34:08;4.50;99.90
36924;DHT22;22841;50.252;18.688;2023-12-20T13:36:34;4.50;99.90
36924;DHT22;22841;50.252;18.688;2023-12-20T13:39:03;4.50;99.90
36924;DHT22;22841;50.252;18.688;2023-12-20T13:41:31;4.50;99.90
36924;DHT22;22841;50.252;18.688;2023-12-20T13:43:57;4.40;99.90
36924;DHT22;22841;50.252;18.688;2023-12-20T13:46:23;4.50;99.90
36924;DHT22;22841;50.252;18.688;2023-12-20T13:48:49;4.50;99.90
36924;DHT22;22841;50.252;18.688;2023-12-20T13:51:15;4.60;99.90
36924;DHT22;22841;50.252;18.688;2023-12-20T13:53:42;4.50;99.90
36924;DHT22;22841;50.252;18.688;2023-12-20T13:56:08;4.60;99.90
36924;DHT22;22841;50.252;18.688;2023-12-20T13:58:34;4.60;99.90
36924;DHT22;22841;50.252;18.688;2023-12-20T14:01:00;4.60;99.90
36924;DHT22;22841;50.252;18.688;2023-12-20T14:03:26;4.50;99.90
36924;DHT22;22841;50.252;18.688;2023-12-20T14:05:52;4.50;99.90
36924;DHT22;22841;50.252;18.688;2023-12-20T14:08:18;4.50;99.90
36924;DHT22;22841;50.252;18.688;2023-12-20T14:10:44;4.50;99.90
36924;DHT22;22841;50.252;18.688;2023-12-20T14:13:10;4.40;99.90
36924;DHT22;22841;50.252;18.688;2023-12-20T14:15:36;4.40;99.90
36924;DHT22;22841;50.252;18.688;2023-12-20T14:18:06;4.30;99.90
36924;DHT22;22841;50.252;18.688;2023-12-20T14:20:34;4.30;99.90
36924;DHT22;22841;50.252;18.688;2023-12-20T14:23:03;4.30;99.90
36924;DHT22;22841;50.252;18.688;2023-12-20T14:25:30;4.40;99.90
36924;DHT22;22841;50.252;18.688;2023-12-20T14:27:57;4.30;99.90
36924;DHT22;22841;50.252;18.688;2023-12-20T14:30:23;4.20;99.90
36924;DHT22;22841;50.252;18.688;2023-12-20T14:32:50;4.20;99.90
36924;DHT22;22841;50.252;18.688;2023-12-20T14:35:16;4.20;99.90
36924;DHT22;22841;50.252;18.688;2023-12-20T14:37:42;4.20;99.90
36924;DHT22;22841;50.252;18.688;2023-12-20T14:40:09;4.10;99.90
36924;DHT22;22841;50.252;18.688;2023-12-20T14:42:44;4.10;99.90
36924;DHT22;22841;50.252;18.688;2023-12-20T14:45:10;4.10;99.90
36924;DHT22;22841;50.252;18.688;2023-12-20T14:47:36;4.00;99.90
36924;DHT22;22841;50.252;18.688;2023-12-20T14:50:03;4.00;99.90
36924;DHT22;22841;50.252;18.688;2023-12-20T14:52:30;3.90;99.90
36924;DHT22;22841;50.252;18.688;2023-12-20T14:54:56;3.90;99.90
36924;DHT22;22841;50.252;18.688;2023-12-20T14:57:22;3.80;99.90
36924;DHT22;22841;50.252;18.688;2023-12-20T14:59:48;3.90;99.90
36924;DHT22;22841;50.252;18.688;2023-12-20T15:02:14;3.90;99.90
36924;DHT22;22841;50.252;18.688;2023-12-20T15:04:41;3.90;99.90
36924;DHT22;22841;50.252;18.688;2023-12-20T15:07:07;3.80;99.90
36924;DHT22;22841;50.252;18.688;2023-12-20T15:09:33;3.90;99.90
36924;DHT22;22841;50.252;18.688;2023-12-20T15:11:59;3.80;99.90
36924;DHT22;22841;50.252;18.688;2023-12-20T15:14:26;3.80;99.90
36924;DHT22;22841;50.252;18.688;2023-12-20T15:16:52;3.80;99.90
36924;DHT22;22841;50.252;18.688;2023-12-20T15:19:18;3.90;99.90
36924;DHT22;22841;50.252;18.688;2023-12-20T15:21:44;3.80;99.90
36924;DHT22;22841;50.252;18.688;2023-12-20T15:24:10;3.90;99.90
36924;DHT22;22841;50.252;18.688;2023-12-20T15:26:46;3.90;99.90
36924;DHT22;22841;50.252;18.688;2023-12-20T15:29:12;3.90;99.90
36924;DHT22;22841;50.252;18.688;2023-12-20T15:31:43;3.80;99.90
36924;DHT22;22841;50.252;18.688;2023-12-20T15:34:10;3.80;99.90
36924;DHT22;22841;50.252;18.688;2023-12-20T15:36:37;3.90;99.90
36924;DHT22;22841;50.252;18.688;2023-12-20T15:39:05;3.90;99.90
36924;DHT22;22841;50.252;18.688;2023-12-20T15:41:31;3.90;99.90
36924;DHT22;22841;50.252;18.688;2023-12-20T15:43:57;3.90;99.90
36924;DHT22;22841;50.252;18.688;2023-12-20T15:46:23;4.00;99.90
36924;DHT22;22841;50.252;18.688;2023-12-20T15:48:49;3.90;99.90
36924;DHT22;22841;50.252;18.688;2023-12-20T15:51:19;3.90;99.90
36924;DHT22;22841;50.252;18.688;2023-12-20T15:53:45;3.80;99.90
36924;DHT22;22841;50.252;18.688;2023-12-20T15:56:12;4.00;99.90
36924;DHT22;22841;50.252;18.688;2023-12-20T15:58:38;4.10;99.90
36924;DHT22;22841;50.252;18.688;2023-12-20T16:01:04;3.90;99.90
36924;DHT22;22841;50.252;18.688;2023-12-20T16:03:30;3.90;99.90
36924;DHT22;22841;50.252;18.688;2023-12-20T16:05:56;3.90;99.90
36924;DHT22;22841;50.252;18.688;2023-12-20T16:08:24;3.90;99.90
36924;DHT22;22841;50.252;18.688;2023-12-20T16:10:50;3.90;99.90
36924;DHT22;22841;50.252;18.688;2023-12-20T16:13:17;3.90;99.90
36924;DHT22;22841;50.252;18.688;2023-12-20T16:15:43;4.00;99.90
36924;DHT22;22841;50.252;18.688;2023-12-20T16:18:09;3.90;99.90
36924;DHT22;22841;50.252;18.688;2023-12-20T16:20:37;3.80;99.90
36924;DHT22;22841;50.252;18.688;2023-12-20T16:23:04;3.80;99.90
36924;DHT22;22841;50.252;18.688;2023-12-20T16:25:30;3.80;99.90
36924;DHT22;22841;50.252;18.688;2023-12-20T16:27:56;3.80;99.90
36924;DHT22;22841;50.252;18.688;2023-12-20T16:30:23;3.80;99.90
36924;DHT22;22841;50.252;18.688;2023-12-20T16:32:49;3.80;99.90
36924;DHT22;22841;50.252;18.688;2023-12-20T16:35:17;3.80;99.90
36924;DHT22;22841;50.252;18.688;2023-12-20T16:37:43;3.80;99.90
36924;DHT22;22841;50.252;18.688;2023-12-20T16:40:10;3.80;99.90
36924;DHT22;22841;50.252;18.688;2023-12-20T16:52:06;3.90;99.90
36924;DHT22;22841;50.252;18.688;2023-12-20T16:54:33;3.80;99.90
36924;DHT22;22841;50.252;18.688;2023-12-20T16:56:59;3.90;99.90
36924;DHT22;22841;50.252;18.688;2023-12-20T16:59:25;3.90;99.90
36924;DHT22;22841;50.252;18.688;2023-12-20T17:04:38;3.90;99.90
36924;DHT22;22841;50.252;18.688;2023-12-20T17:09:50;3.80;99.90
36924;DHT22;22841;50.252;18.688;2023-12-20T17:12:16;3.90;99.90
36924;DHT22;22841;50.252;18.688;2023-12-20T17:14:42;3.90;99.90
36924;DHT22;22841;50.252;18.688;2023-12-20T17:17:08;3.80;99.90
36924;DHT22;22841;50.252;18.688;2023-12-20T17:19:34;3.80;99.90
36924;DHT22;22841;50.252;18.688;2023-12-20T17:22:01;3.70;99.90
36924;DHT22;22841;50.252;18.688;2023-12-20T17:24:28;3.80;99.90
36924;DHT22;22841;50.252;18.688;2023-12-20T17:26:55;3.80;99.90
36924;DHT22;22841;50.252;18.688;2023-12-20T17:29:21;3.80;99.90
36924;DHT22;22841;50.252;18.688;2023-12-20T17:31:47;3.80;99.90
36924;DHT22;22841;50.252;18.688;2023-12-20T17:34:13;3.80;99.90
36924;DHT22;22841;50.252;18.688;2023-12-20T17:36:40;3.70;99.90
36924;DHT22;22841;50.252;18.688;2023-12-20T17:39:07;3.80;99.90
36924;DHT22;22841;50.252;18.688;2023-12-20T17:41:33;3.80;99.90
36924;DHT22;22841;50.252;18.688;2023-12-20T17:44:02;3.80;99.90
36924;DHT22;22841;50.252;18.688;2023-12-20T17:46:28;3.80;99.90
36924;DHT22;22841;50.252;18.688;2023-12-20T17:48:54;3.80;99.90
36924;DHT22;22841;50.252;18.688;2023-12-20T17:51:21;3.80;99.90
36924;DHT22;22841;50.252;18.688;2023-12-20T17:53:48;3.80;99.90
36924;DHT22;22841;50.252;18.688;2023-12-20T17:56:16;3.90;99.90
36924;DHT22;22841;50.252;18.688;2023-12-20T17:58:43;3.90;99.90
36924;DHT22;22841;50.252;18.688;2023-12-20T18:01:10;3.90;99.90
36924;DHT22;22841;50.252;18.688;2023-12-20T18:03:39;3.90;99.90
36924;DHT22;22841;50.252;18.688;2023-12-20T18:06:05;3.90;99.90
36924;DHT22;22841;50.252;18.688;2023-12-20T18:08:31;3.80;99.90
36924;DHT22;22841;50.252;18.688;2023-12-20T18:10:57;3.80;99.90
36924;DHT22;22841;50.252;18.688;2023-12-20T18:13:23;3.80;99.90
36924;DHT22;22841;50.252;18.688;2023-12-20T18:15:49;3.80;99.90
36924;DHT22;22841;50.252;18.688;2023-12-20T18:18:15;3.90;99.90
36924;DHT22;22841;50.252;18.688;2023-12-20T18:20:41;3.80;99.90
36924;DHT22;22841;50.252;18.688;2023-12-20T18:23:08;3.90;99.90
36924;DHT22;22841;50.252;18.688;2023-12-20T18:25:34;3.80;99.90
36924;DHT22;22841;50.252;18.688;2023-12-20T18:28:00;3.90;99.90
36924;DHT22;22841;50.252;18.688;2023-12-20T18:30:26;3.90;99.90
36924;DHT22;22841;50.252;18.688;2023-12-20T18:33:18;3.90;99.90
36924;DHT22;22841;50.252;18.688;2023-12-20T18:35:44;4.00;99.90
36924;DHT22;22841;50.252;18.688;2023-12-20T18:38:11;4.00;99.90
36924;DHT22;22841;50.252;18.688;2023-12-20T18:40:39;3.90;99.90
36924;DHT22;22841;50.252;18.688;2023-12-20T18:43:05;4.00;99.90
36924;DHT22;22841;50.252;18.688;2023-12-20T18:45:31;4.00;99.90
36924;DHT22;22841;50.252;18.688;2023-12-20T18:47:57;4.10;99.90
36924;DHT22;22841;50.252;18.688;2023-12-20T18:53:11;3.90;99.90
36924;DHT22;22841;50.252;18.688;2023-12-20T18:55:37;3.90;99.90
36924;DHT22;22841;50.252;18.688;2023-12-20T18:58:04;3.90;99.90
36924;DHT22;22841;50.252;18.688;2023-12-20T19:00:30;4.00;99.90
36924;DHT22;22841;50.252;18.688;2023-12-20T19:02:56;3.90;99.90
36924;DHT22;22841;50.252;18.688;2023-12-20T19:07:58;3.90;99.90
36924;DHT22;22841;50.252;18.688;2023-12-20T19:10:38;3.90;99.90
36924;DHT22;22841;50.252;18.688;2023-12-20T19:13:26;4.00;99.90
36924;DHT22;22841;50.252;18.688;2023-12-20T19:16:20;4.00;99.90
36924;DHT22;22841;50.252;18.688;2023-12-20T19:18:47;3.90;99.90
36924;DHT22;22841;50.252;18.688;2023-12-20T19:21:13;3.80;99.90
36924;DHT22;22841;50.252;18.688;2023-12-20T19:28:54;4.00;99.90
36924;DHT22;22841;50.252;18.688;2023-12-20T19:31:20;3.90;99.90
36924;DHT22;22841;50.252;18.688;2023-12-20T19:36:22;3.90;99.90
36924;DHT22;22841;50.252;18.688;2023-12-20T19:38:49;3.80;99.90
36924;DHT22;22841;50.252;18.688;2023-12-20T19:41:15;3.80;99.90
36924;DHT22;22841;50.252;18.688;2023-12-20T19:43:42;3.70;99.90
36924;DHT22;22841;50.252;18.688;2023-12-20T19:46:08;3.80;99.90
36924;DHT22;22841;50.252;18.688;2023-12-20T19:48:53;3.60;99.90
36924;DHT22;22841;50.252;18.688;2023-12-20T19:53:56;3.70;99.90
36924;DHT22;22841;50.252;18.688;2023-12-20T20:23:07;3.80;99.90
36924;DHT22;22841;50.252;18.688;2023-12-20T20:28:09;3.80;99.90
36924;DHT22;22841;50.252;18.688;2023-12-20T20:40:59;3.90;99.90
36924;DHT22;22841;50.252;18.688;2023-12-20T20:43:25;4.00;99.90
36924;DHT22;22841;50.252;18.688;2023-12-20T20:45:51;4.00;99.90
36924;DHT22;22841;50.252;18.688;2023-12-20T20:48:17;3.90;99.90
36924;DHT22;22841;50.252;18.688;2023-12-20T21:01:07;3.90;99.90
36924;DHT22;22841;50.252;18.688;2023-12-20T21:03:33;3.90;99.90
36924;DHT22;22841;50.252;18.688;2023-12-20T21:08:35;4.00;99.90
36924;DHT22;22841;50.252;18.688;2023-12-20T21:11:02;4.00;99.90
36924;DHT22;22841;50.252;18.688;2023-12-20T21:16:04;4.00;99.90
36924;DHT22;22841;50.252;18.688;2023-12-20T21:18:30;4.00;99.90